Time;durP1;ratioP1;P1;durP2;ratioP2;P2;SDS_P1;SDS_P2;PMS_P1;PMS_P2;Temp;Humidity;BMP_temperature;BMP_pressure;BME280_temperature;BME280_humidity;BME280_pressure;Samples;Min_cycle;Max_cycle;Signal;HPM_P1;HPM_P2
2022/11/17 00:00:22;;;;;;;37.33;23.37;;;;;;;;;;4468311;32;20591;-85
2022/11/17 00:02:49;;;;;;;33.40;24.83;;;;;;;;;;4467760;32;20311;-85
2022/11/17 00:05:16;;;;;;;41.07;24.80;;;;;;;;;;4468262;32;20669;-85
2022/11/17 00:07:44;;;;;;;39.30;25.90;;;;;;;;;;4468342;32;20669;-85
2022/11/17 00:10:13;;;;;;;39.53;24.20;;;;;;;;;;4468229;32;20204;-85
2022/11/17 00:15:25;;;;;;;37.67;22.93;;;;;;;;;;4468234;32;20221;-85
2022/11/17 00:21:17;;;;;;;29.47;20.00;;;;;;;;;;4468007;32;20245;-85
2022/11/17 00:23:45;;;;;;;39.87;19.70;;;;;;;;;;4468193;32;20227;-85
2022/11/17 00:26:18;;;;;;;29.83;18.97;;;;;;;;;;4468272;32;20222;-85
2022/11/17 00:28:46;;;;;;;28.30;17.23;;;;;;;;;;4468446;32;20264;-85
2022/11/17 00:34:12;;;;;;;23.40;17.23;;;;;;;;;;4435277;32;20399;-85
2022/11/17 00:36:41;;;;;;;31.53;18.43;;;;;;;;;;4460985;32;20216;-85
2022/11/17 00:39:09;;;;;;;35.13;22.60;;;;;;;;;;4468290;32;20778;-85
2022/11/17 00:41:38;;;;;;;24.10;16.93;;;;;;;;;;4468040;32;20204;-85
2022/11/17 00:44:07;;;;;;;20.63;15.53;;;;;;;;;;4468262;32;20224;-85
2022/11/17 00:46:35;;;;;;;27.63;17.83;;;;;;;;;;4468492;32;20294;-85
2022/11/17 00:49:03;;;;;;;30.33;18.60;;;;;;;;;;4467992;32;20667;-86
2022/11/17 00:51:30;;;;;;;32.70;21.83;;;;;;;;;;4467930;32;20583;-85
2022/11/17 00:53:57;;;;;;;33.90;22.17;;;;;;;;;;4467918;32;20571;-85
2022/11/17 00:56:25;;;;;;;24.83;18.43;;;;;;;;;;4467768;32;20226;-85
2022/11/17 00:58:56;;;;;;;27.67;19.47;;;;;;;;;;4467938;32;20281;-85
2022/11/17 01:01:23;;;;;;;26.10;18.47;;;;;;;;;;4468485;32;20263;-85
2022/11/17 01:03:50;;;;;;;31.97;19.07;;;;;;;;;;4467757;32;20664;-85
2022/11/17 01:06:19;;;;;;;38.13;28.93;;;;;;;;;;4468069;32;20196;-85
2022/11/17 01:08:46;;;;;;;41.07;31.43;;;;;;;;;;4467816;32;20579;-86
2022/11/17 01:11:15;;;;;;;40.60;30.43;;;;;;;;;;4468056;32;20253;-85
2022/11/17 01:13:43;;;;;;;34.67;27.43;;;;;;;;;;4470073;32;20246;-85
2022/11/17 01:16:13;;;;;;;30.30;20.53;;;;;;;;;;4470669;32;20218;-85
2022/11/17 01:18:40;;;;;;;24.43;19.40;;;;;;;;;;4470945;32;20610;-85
2022/11/17 01:21:12;;;;;;;30.33;18.33;;;;;;;;;;4470610;32;20684;-85
2022/11/17 01:23:40;;;;;;;30.20;18.67;;;;;;;;;;4471157;32;20306;-85
2022/11/17 01:26:11;;;;;;;27.43;19.47;;;;;;;;;;4470615;32;20219;-85
2022/11/17 01:28:38;;;;;;;28.33;20.60;;;;;;;;;;4470821;32;20218;-85
2022/11/17 01:31:07;;;;;;;23.77;18.57;;;;;;;;;;4470455;32;20221;-85
2022/11/17 01:33:38;;;;;;;27.10;15.77;;;;;;;;;;4470451;32;20278;-85
2022/11/17 01:36:07;;;;;;;20.80;15.60;;;;;;;;;;4470579;32;20295;-86
2022/11/17 01:38:35;;;;;;;18.93;14.60;;;;;;;;;;4470844;32;20207;-85
2022/11/17 01:41:05;;;;;;;19.13;14.33;;;;;;;;;;4470591;32;20665;-85
2022/11/17 01:43:40;;;;;;;24.10;14.20;;;;;;;;;;4470304;32;20253;-85
2022/11/17 01:46:13;;;;;;;20.30;13.70;;;;;;;;;;4470527;32;20220;-85
2022/11/17 01:48:47;;;;;;;20.53;12.63;;;;;;;;;;4470489;32;20204;-85
2022/11/17 01:51:15;;;;;;;19.97;13.30;;;;;;;;;;4470444;32;20216;-85
2022/11/17 01:53:44;;;;;;;26.17;13.93;;;;;;;;;;4470208;32;20633;-85
2022/11/17 01:56:15;;;;;;;25.73;15.43;;;;;;;;;;4470526;32;20299;-85
2022/11/17 01:58:46;;;;;;;18.73;13.23;;;;;;;;;;4469948;32;20657;-85
2022/11/17 02:01:13;;;;;;;25.07;13.77;;;;;;;;;;4470159;32;20234;-86
2022/11/17 02:03:44;;;;;;;23.63;14.33;;;;;;;;;;4470233;32;20226;-85
2022/11/17 02:06:15;;;;;;;26.17;14.37;;;;;;;;;;4470146;32;20227;-85
2022/11/17 02:08:46;;;;;;;21.63;13.27;;;;;;;;;;4470522;32;20265;-85
2022/11/17 02:11:17;;;;;;;17.30;13.27;;;;;;;;;;4470039;32;20238;-85
2022/11/17 02:13:44;;;;;;;17.67;12.47;;;;;;;;;;4470411;32;20204;-85
2022/11/17 02:16:13;;;;;;;17.80;11.50;;;;;;;;;;4470093;32;20279;-85
2022/11/17 02:18:42;;;;;;;19.30;11.97;;;;;;;;;;4470225;32;20325;-85
2022/11/17 02:21:44;;;;;;;25.00;12.50;;;;;;;;;;4469720;32;20378;-85
2022/11/17 02:24:47;;;;;;;20.23;12.17;;;;;;;;;;4466942;32;20243;-85
2022/11/17 02:27:42;;;;;;;16.97;12.03;;;;;;;;;;4469429;32;20249;-85
2022/11/17 02:30:12;;;;;;;18.57;11.30;;;;;;;;;;4470071;32;20214;-85
2022/11/17 02:33:03;;;;;;;16.87;10.37;;;;;;;;;;4470191;32;20221;-85
2022/11/17 02:35:41;;;;;;;15.87;10.77;;;;;;;;;;4470254;32;20246;-85
2022/11/17 02:38:21;;;;;;;16.00;9.63;;;;;;;;;;4470105;32;20727;-85
2022/11/17 02:40:53;;;;;;;14.00;10.40;;;;;;;;;;4469769;32;20272;-85
2022/11/17 02:46:16;;;;;;;14.93;10.80;;;;;;;;;;4469481;32;20226;-86
2022/11/17 03:08:12;;;;;;;20.97;12.40;;;;;;;;;;4476792;31;20642;-80
2022/11/17 03:10:50;;;;;;;16.77;12.87;;;;;;;;;;4462391;32;20284;-84
2022/11/17 03:13:21;;;;;;;17.87;13.30;;;;;;;;;;4459371;32;20240;-81
2022/11/17 03:15:53;;;;;;;16.40;11.80;;;;;;;;;;4446423;32;20244;-83
2022/11/17 03:18:25;;;;;;;18.60;12.17;;;;;;;;;;4446429;32;20622;-82
2022/11/17 03:21:04;;;;;;;21.30;12.20;;;;;;;;;;4446492;32;20627;-79
2022/11/17 03:23:38;;;;;;;20.30;13.83;;;;;;;;;;4446498;32;20317;-81
2022/11/17 03:26:09;;;;;;;23.13;14.60;;;;;;;;;;4446521;32;20240;-81
2022/11/17 03:28:37;;;;;;;20.67;14.77;;;;;;;;;;4456392;32;20711;-83
2022/11/17 03:31:08;;;;;;;25.70;15.40;;;;;;;;;;4454315;32;20258;-83
2022/11/17 03:33:36;;;;;;;21.83;13.47;;;;;;;;;;4446240;32;20268;-81
2022/11/17 03:36:09;;;;;;;19.70;14.23;;;;;;;;;;4446173;32;20255;-80
2022/11/17 03:38:41;;;;;;;21.93;13.07;;;;;;;;;;4446260;32;20653;-81
2022/11/17 03:41:10;;;;;;;23.20;14.17;;;;;;;;;;4446093;32;20232;-81
2022/11/17 03:43:39;;;;;;;19.23;12.43;;;;;;;;;;4446549;32;20706;-80
2022/11/17 03:46:09;;;;;;;16.73;11.90;;;;;;;;;;4445785;32;20827;-80
2022/11/17 03:48:43;;;;;;;22.60;12.67;;;;;;;;;;4446499;32;20244;-80
2022/11/17 03:51:15;;;;;;;16.30;13.23;;;;;;;;;;4446200;32;20257;-81
2022/11/17 03:53:43;;;;;;;22.40;13.80;;;;;;;;;;4458603;32;20319;-80
2022/11/17 03:56:21;;;;;;;18.53;12.30;;;;;;;;;;4453871;32;20802;-81
2022/11/17 03:58:55;;;;;;;21.33;12.37;;;;;;;;;;4430872;32;20228;-80
2022/11/17 04:01:22;;;;;;;17.77;12.13;;;;;;;;;;4430496;32;20602;-81
2022/11/17 04:03:49;;;;;;;21.43;11.60;;;;;;;;;;4430686;32;20297;-80
2022/11/17 04:06:16;;;;;;;21.13;12.23;;;;;;;;;;4444158;32;20237;-81
2022/11/17 04:08:44;;;;;;;16.97;12.20;;;;;;;;;;4437085;32;20289;-81
2022/11/17 04:16:39;;;;;;;17.63;11.20;;;;;;;;;;4435323;32;20328;-78
2022/11/17 04:19:06;;;;;;;19.27;11.83;;;;;;;;;;4435624;32;20224;-79
2022/11/17 04:21:32;;;;;;;14.03;11.90;;;;;;;;;;4435022;32;20328;-79
2022/11/17 04:24:02;;;;;;;21.33;11.97;;;;;;;;;;4435400;32;20340;-80
2022/11/17 04:29:13;;;;;;;21.57;15.17;;;;;;;;;;4435128;32;20433;-78
2022/11/17 04:31:40;;;;;;;24.83;16.20;;;;;;;;;;4426865;32;20697;-80
2022/11/17 04:34:07;;;;;;;21.47;15.73;;;;;;;;;;4419742;32;20221;-81
2022/11/17 04:36:39;;;;;;;17.27;13.63;;;;;;;;;;4419265;32;20298;-79
2022/11/17 04:39:07;;;;;;;18.73;12.83;;;;;;;;;;4423232;32;20653;-81
2022/11/17 04:44:22;;;;;;;24.37;14.80;;;;;;;;;;4434913;32;20228;-80
2022/11/17 04:46:48;;;;;;;20.10;15.07;;;;;;;;;;4434707;32;20256;-81
2022/11/17 04:49:17;;;;;;;20.37;15.67;;;;;;;;;;4434744;32;20277;-81
2022/11/17 04:51:44;;;;;;;21.83;14.27;;;;;;;;;;4434692;32;20285;-81
2022/11/17 04:54:14;;;;;;;22.63;16.23;;;;;;;;;;4434834;32;20252;-80
2022/11/17 04:56:45;;;;;;;21.00;15.00;;;;;;;;;;4434931;32;20225;-81
2022/11/17 04:59:12;;;;;;;23.23;15.03;;;;;;;;;;4433726;32;20323;-82
2022/11/17 05:01:39;;;;;;;22.73;15.80;;;;;;;;;;4434769;32;20280;-81
2022/11/17 05:04:07;;;;;;;26.90;16.03;;;;;;;;;;4441515;32;20228;-81
2022/11/17 05:06:36;;;;;;;23.77;15.93;;;;;;;;;;4443140;32;20279;-81
2022/11/17 05:09:05;;;;;;;21.80;15.23;;;;;;;;;;4444091;32;20368;-81
2022/11/17 05:14:19;;;;;;;25.93;18.50;;;;;;;;;;4425460;32;20779;-81
2022/11/17 05:17:04;;;;;;;24.70;17.23;;;;;;;;;;4424711;32;20665;-80
2022/11/17 05:19:32;;;;;;;29.80;20.13;;;;;;;;;;4423507;32;20205;-81
2022/11/17 05:21:59;;;;;;;28.07;19.57;;;;;;;;;;4424845;32;20262;-79
2022/11/17 05:24:25;;;;;;;28.17;20.27;;;;;;;;;;4420390;32;20247;-80
2022/11/17 05:26:54;;;;;;;28.23;20.00;;;;;;;;;;4419753;32;20292;-82
2022/11/17 05:29:22;;;;;;;25.50;18.30;;;;;;;;;;4419135;32;20759;-81
2022/11/17 05:31:49;;;;;;;30.53;18.93;;;;;;;;;;4419983;32;20262;-82
2022/11/17 05:34:19;;;;;;;23.37;18.60;;;;;;;;;;4425602;32;20237;-83
2022/11/17 05:36:46;;;;;;;30.77;20.10;;;;;;;;;;4440820;32;20280;-81
2022/11/17 05:39:14;;;;;;;25.77;18.93;;;;;;;;;;4441125;32;20224;-86
2022/11/17 05:41:42;;;;;;;27.60;17.57;;;;;;;;;;4438359;32;20229;-86
2022/11/17 05:44:12;;;;;;;28.13;19.77;;;;;;;;;;4433127;32;20299;-86
2022/11/17 05:46:39;;;;;;;36.37;19.70;;;;;;;;;;4433769;32;20290;-86
2022/11/17 05:49:06;;;;;;;29.33;21.20;;;;;;;;;;4433568;32;20228;-85
2022/11/17 05:51:32;;;;;;;41.03;28.47;;;;;;;;;;4433337;32;20842;-81
2022/11/17 05:53:59;;;;;;;45.30;28.83;;;;;;;;;;4434041;32;20353;-86
2022/11/17 05:56:35;;;;;;;41.10;29.20;;;;;;;;;;4433557;32;20286;-81
2022/11/17 05:59:11;;;;;;;42.10;31.13;;;;;;;;;;4417868;32;20585;-81
2022/11/17 06:01:43;;;;;;;40.83;30.17;;;;;;;;;;4418098;32;20220;-84
2022/11/17 06:04:11;;;;;;;44.47;31.00;;;;;;;;;;4418612;32;20260;-82
2022/11/17 06:06:37;;;;;;;45.53;34.03;;;;;;;;;;4432758;32;20229;-85
2022/11/17 06:09:04;;;;;;;46.97;32.00;;;;;;;;;;4433268;32;20281;-81
2022/11/17 06:11:32;;;;;;;31.57;24.47;;;;;;;;;;4433116;32;20277;-80
2022/11/17 06:13:59;;;;;;;44.53;29.40;;;;;;;;;;4432347;32;20663;-83
2022/11/17 06:16:29;;;;;;;35.73;24.23;;;;;;;;;;4432061;32;20253;-81
2022/11/17 06:19:03;;;;;;;35.03;23.70;;;;;;;;;;4431460;32;20336;-82
2022/11/17 06:21:31;;;;;;;55.97;38.20;;;;;;;;;;4431739;32;20284;-81
2022/11/17 06:23:59;;;;;;;76.07;44.87;;;;;;;;;;4432367;32;20258;-82
2022/11/17 06:26:27;;;;;;;67.63;45.93;;;;;;;;;;4432608;32;20308;-83
2022/11/17 06:28:55;;;;;;;68.93;48.10;;;;;;;;;;4420824;32;20608;-85
2022/11/17 06:31:23;;;;;;;76.63;47.43;;;;;;;;;;4417462;32;20655;-85
2022/11/17 06:33:49;;;;;;;75.77;47.83;;;;;;;;;;4428876;32;20749;-78
2022/11/17 06:36:17;;;;;;;50.97;35.50;;;;;;;;;;4432023;32;20314;-80
2022/11/17 06:38:44;;;;;;;64.70;43.50;;;;;;;;;;4432535;32;20668;-79
2022/11/17 06:41:11;;;;;;;76.93;51.23;;;;;;;;;;4432420;32;20252;-78
2022/11/17 06:43:38;;;;;;;39.70;28.23;;;;;;;;;;4431336;32;20722;-78
2022/11/17 06:46:05;;;;;;;22.90;14.10;;;;;;;;;;4432503;32;20353;-79
2022/11/17 06:48:34;;;;;;;12.00;9.37;;;;;;;;;;4433026;32;20302;-84
2022/11/17 06:51:02;;;;;;;13.37;8.20;;;;;;;;;;4432175;32;20233;-82
2022/11/17 06:53:31;;;;;;;8.40;5.93;;;;;;;;;;4433382;32;20225;-83
2022/11/17 06:56:01;;;;;;;8.67;6.23;;;;;;;;;;4432668;32;20608;-82
2022/11/17 06:58:29;;;;;;;12.17;6.20;;;;;;;;;;4432916;32;20240;-82
2022/11/17 07:01:01;;;;;;;10.23;6.13;;;;;;;;;;4432676;32;20542;-82
2022/11/17 07:03:28;;;;;;;14.60;8.67;;;;;;;;;;4433300;32;20213;-85
2022/11/17 07:05:59;;;;;;;19.53;7.23;;;;;;;;;;4432055;32;20233;-80
2022/11/17 07:08:26;;;;;;;14.77;7.17;;;;;;;;;;4432525;32;20216;-79
2022/11/17 07:10:55;;;;;;;16.93;7.20;;;;;;;;;;4421625;32;20499;-80
2022/11/17 07:13:24;;;;;;;15.87;7.77;;;;;;;;;;4417047;32;20241;-83
2022/11/17 07:15:51;;;;;;;11.57;8.50;;;;;;;;;;4417241;32;20291;-79
2022/11/17 07:18:19;;;;;;;11.27;6.40;;;;;;;;;;4416781;32;20217;-81
2022/11/17 07:20:47;;;;;;;15.07;8.67;;;;;;;;;;4416691;32;20236;-79
2022/11/17 07:23:14;;;;;;;11.20;7.77;;;;;;;;;;4416171;32;20357;-82
2022/11/17 07:25:41;;;;;;;10.87;7.93;;;;;;;;;;4417268;32;20249;-81
2022/11/17 07:28:09;;;;;;;12.50;8.93;;;;;;;;;;4423851;32;20271;-83
2022/11/17 07:30:36;;;;;;;19.27;10.40;;;;;;;;;;4432539;32;20676;-82
2022/11/17 07:33:03;;;;;;;15.53;11.60;;;;;;;;;;4432328;32;20336;-81
2022/11/17 07:35:30;;;;;;;21.10;12.07;;;;;;;;;;4432083;32;20252;-79
2022/11/17 07:37:58;;;;;;;22.47;12.90;;;;;;;;;;4432299;32;20273;-81
2022/11/17 07:40:25;;;;;;;23.90;13.40;;;;;;;;;;4432523;32;20259;-81
2022/11/17 07:42:51;;;;;;;31.90;18.20;;;;;;;;;;4433042;32;20294;-82
2022/11/17 07:45:21;;;;;;;27.53;17.60;;;;;;;;;;4435290;32;20302;-79
2022/11/17 07:47:56;;;;;;;25.33;17.40;;;;;;;;;;4435049;32;20321;-81
2022/11/17 07:50:25;;;;;;;27.73;19.90;;;;;;;;;;4434808;32;20398;-80
2022/11/17 07:52:52;;;;;;;30.20;19.70;;;;;;;;;;4434887;32;20819;-81
2022/11/17 07:55:19;;;;;;;38.97;22.13;;;;;;;;;;4435206;32;20237;-82
2022/11/17 07:57:47;;;;;;;39.53;25.57;;;;;;;;;;4435050;32;20688;-81
2022/11/17 08:00:16;;;;;;;47.03;30.67;;;;;;;;;;4437762;32;20847;-80
2022/11/17 08:02:46;;;;;;;36.73;24.37;;;;;;;;;;4450206;32;20328;-83
2022/11/17 08:05:16;;;;;;;38.07;23.93;;;;;;;;;;4442500;32;20324;-80
2022/11/17 08:07:42;;;;;;;36.60;23.47;;;;;;;;;;4434332;32;20876;-85
2022/11/17 08:10:10;;;;;;;36.47;21.77;;;;;;;;;;4435246;32;20317;-83
2022/11/17 08:12:37;;;;;;;62.23;36.97;;;;;;;;;;4434460;32;20300;-86
2022/11/17 08:15:04;;;;;;;32.97;21.73;;;;;;;;;;4435333;32;20324;-81
2022/11/17 08:17:31;;;;;;;24.40;14.53;;;;;;;;;;4435223;32;20224;-83
2022/11/17 08:19:59;;;;;;;19.07;13.13;;;;;;;;;;4435067;32;20237;-87
2022/11/17 08:22:26;;;;;;;19.60;11.03;;;;;;;;;;4435349;32;20240;-87
2022/11/17 08:24:53;;;;;;;15.10;8.20;;;;;;;;;;4435857;32;20221;-85
2022/11/17 08:27:21;;;;;;;16.00;8.87;;;;;;;;;;4435044;32;20872;-87
2022/11/17 08:29:47;;;;;;;15.70;10.17;;;;;;;;;;4434899;32;20786;-81
2022/11/17 08:32:15;;;;;;;10.73;6.30;;;;;;;;;;4434700;32;20249;-86
2022/11/17 08:34:42;;;;;;;6.17;3.97;;;;;;;;;;4434554;32;20264;-85
2022/11/17 08:37:10;;;;;;;9.33;4.03;;;;;;;;;;4434816;32;20225;-82
2022/11/17 08:39:37;;;;;;;6.20;4.30;;;;;;;;;;4434650;32;20241;-84
2022/11/17 08:42:04;;;;;;;6.70;4.27;;;;;;;;;;4434530;32;20248;-85
2022/11/17 08:44:31;;;;;;;5.57;3.10;;;;;;;;;;4434653;32;20256;-84
2022/11/17 08:46:58;;;;;;;7.00;3.63;;;;;;;;;;4434037;32;20220;-85
2022/11/17 08:49:25;;;;;;;7.40;4.37;;;;;;;;;;4434099;32;20275;-86
2022/11/17 08:51:52;;;;;;;15.83;9.40;;;;;;;;;;4433294;32;20591;-86
2022/11/17 08:54:20;;;;;;;8.47;5.50;;;;;;;;;;4419824;32;20270;-83
2022/11/17 08:56:46;;;;;;;4.90;4.00;;;;;;;;;;4420923;32;20637;-85
2022/11/17 08:59:14;;;;;;;5.13;4.03;;;;;;;;;;4434350;32;20363;-88
2022/11/17 09:01:41;;;;;;;7.07;4.83;;;;;;;;;;4434216;32;20709;-86
2022/11/17 09:04:09;;;;;;;9.60;4.73;;;;;;;;;;4434342;32;20221;-84
2022/11/17 09:06:36;;;;;;;6.83;3.70;;;;;;;;;;4434001;32;20317;-85
2022/11/17 09:09:03;;;;;;;5.57;3.93;;;;;;;;;;4434721;32;20541;-86
2022/11/17 09:11:33;;;;;;;3.77;3.43;;;;;;;;;;4419505;32;20322;-86
2022/11/17 09:13:59;;;;;;;5.33;3.77;;;;;;;;;;4419137;32;20650;-86
2022/11/17 09:16:26;;;;;;;8.40;4.77;;;;;;;;;;4418952;32;20248;-85
2022/11/17 09:18:55;;;;;;;4.03;3.40;;;;;;;;;;4418924;32;20303;-87
2022/11/17 09:21:22;;;;;;;12.70;4.83;;;;;;;;;;4422464;32;20251;-87
2022/11/17 09:23:50;;;;;;;5.97;3.80;;;;;;;;;;4434229;32;20270;-87
2022/11/17 09:26:17;;;;;;;5.17;3.23;;;;;;;;;;4436151;32;20232;-87
2022/11/17 09:28:46;;;;;;;5.23;3.50;;;;;;;;;;4436576;32;20311;-87
2022/11/17 09:31:14;;;;;;;19.80;4.57;;;;;;;;;;4442931;32;20225;-83
2022/11/17 09:33:43;;;;;;;5.53;4.03;;;;;;;;;;4453390;32;20200;-85
2022/11/17 09:36:11;;;;;;;17.57;4.03;;;;;;;;;;4452930;32;20240;-87
2022/11/17 09:38:39;;;;;;;7.13;4.40;;;;;;;;;;4451608;32;20309;-83
2022/11/17 09:41:20;;;;;;;4.73;3.50;;;;;;;;;;4443389;32;20249;-86
2022/11/17 09:43:52;;;;;;;11.93;5.90;;;;;;;;;;4435514;32;20652;-84
2022/11/17 09:46:26;;;;;;;9.23;5.17;;;;;;;;;;4434848;32;20277;-85
2022/11/17 09:49:03;;;;;;;10.17;4.67;;;;;;;;;;4434072;32;20821;-88
2022/11/17 09:51:32;;;;;;;7.47;4.63;;;;;;;;;;4434091;32;20212;-83
2022/11/17 09:54:05;;;;;;;9.47;4.57;;;;;;;;;;4419683;32;20233;-88
2022/11/17 09:56:33;;;;;;;9.43;3.50;;;;;;;;;;4418366;32;20244;-84
2022/11/17 09:59:04;;;;;;;9.37;5.10;;;;;;;;;;4433316;32;20224;-84
2022/11/17 10:01:32;;;;;;;12.27;6.60;;;;;;;;;;4449255;32;20229;-86
2022/11/17 10:04:00;;;;;;;10.83;6.50;;;;;;;;;;4449339;32;20225;-88
2022/11/17 10:06:29;;;;;;;11.13;5.47;;;;;;;;;;4433309;32;21030;-88
2022/11/17 10:09:00;;;;;;;7.33;4.97;;;;;;;;;;4433663;32;20229;-85
2022/11/17 10:11:32;;;;;;;8.73;5.83;;;;;;;;;;4433728;32;20321;-83
2022/11/17 10:14:10;;;;;;;6.53;3.87;;;;;;;;;;4433710;32;20219;-86
2022/11/17 10:16:39;;;;;;;12.90;4.30;;;;;;;;;;4434098;32;20875;-88
2022/11/17 10:19:14;;;;;;;10.50;6.27;;;;;;;;;;4432892;32;20284;-79
2022/11/17 10:21:41;;;;;;;42.27;18.43;;;;;;;;;;4445949;32;20228;-81
2022/11/17 10:24:08;;;;;;;35.20;20.43;;;;;;;;;;4448647;32;20253;-82
2022/11/17 10:26:45;;;;;;;29.10;15.70;;;;;;;;;;4448841;32;20302;-84
2022/11/17 10:29:15;;;;;;;13.23;8.20;;;;;;;;;;4441359;32;20231;-85
2022/11/17 10:31:43;;;;;;;8.83;6.30;;;;;;;;;;4433589;32;20296;-85
2022/11/17 10:34:11;;;;;;;9.40;6.73;;;;;;;;;;4432933;32;20622;-84
2022/11/17 10:36:46;;;;;;;10.93;5.17;;;;;;;;;;4433059;32;20321;-83
2022/11/17 10:39:37;;;;;;;11.70;7.87;;;;;;;;;;4417313;32;20321;-81
2022/11/17 10:42:18;;;;;;;11.47;7.90;;;;;;;;;;4416761;32;20321;-80
2022/11/17 10:44:51;;;;;;;20.77;13.33;;;;;;;;;;4417747;32;20229;-82
2022/11/17 10:47:32;;;;;;;11.90;8.90;;;;;;;;;;4417333;32;20232;-84
2022/11/17 10:50:14;;;;;;;13.67;9.50;;;;;;;;;;4417034;32;20289;-87
2022/11/17 10:52:41;;;;;;;14.90;10.93;;;;;;;;;;4423172;32;20600;-84
2022/11/17 10:55:18;;;;;;;17.20;11.37;;;;;;;;;;4444487;32;20249;-81
2022/11/17 10:57:49;;;;;;;31.67;23.17;;;;;;;;;;4441403;32;20641;-83
2022/11/17 11:00:29;;;;;;;31.30;17.17;;;;;;;;;;4433390;32;20240;-80
2022/11/17 11:03:17;;;;;;;25.97;20.23;;;;;;;;;;4432704;32;20250;-79
2022/11/17 11:06:00;;;;;;;26.47;18.93;;;;;;;;;;4432759;32;20323;-81
2022/11/17 11:08:34;;;;;;;15.23;10.67;;;;;;;;;;4432727;32;20263;-79
2022/11/17 11:11:03;;;;;;;44.27;23.27;;;;;;;;;;4421043;32;20277;-80
2022/11/17 11:13:37;;;;;;;70.37;43.43;;;;;;;;;;4419079;32;20332;-79
2022/11/17 11:16:09;;;;;;;56.17;36.97;;;;;;;;;;4432281;32;20328;-86
2022/11/17 11:18:35;;;;;;;57.10;37.13;;;;;;;;;;4434982;32;20261;-82
2022/11/17 11:21:10;;;;;;;25.03;14.70;;;;;;;;;;4435423;32;20252;-82
2022/11/17 11:23:49;;;;;;;27.20;16.43;;;;;;;;;;4435869;32;20212;-82
2022/11/17 11:26:29;;;;;;;23.93;14.03;;;;;;;;;;4435626;32;20265;-82
2022/11/17 11:29:05;;;;;;;26.17;17.73;;;;;;;;;;4437099;32;20223;-84
2022/11/17 11:31:46;;;;;;;25.87;16.03;;;;;;;;;;4450893;32;20617;-82
2022/11/17 11:34:27;;;;;;;24.10;16.33;;;;;;;;;;4450795;32;20250;-82
2022/11/17 11:36:56;;;;;;;29.80;21.80;;;;;;;;;;4451008;32;20592;-83
2022/11/17 11:39:38;;;;;;;26.40;17.47;;;;;;;;;;4450696;32;20383;-83
2022/11/17 11:42:28;;;;;;;21.50;16.90;;;;;;;;;;4451264;32;20330;-81
2022/11/17 11:45:16;;;;;;;26.70;19.37;;;;;;;;;;4450511;32;20740;-84
2022/11/17 11:48:02;;;;;;;35.83;24.07;;;;;;;;;;4450834;32;20630;-81
2022/11/17 11:50:34;;;;;;;65.33;52.20;;;;;;;;;;4450577;32;20709;-82
2022/11/17 11:53:05;;;;;;;18.03;16.03;;;;;;;;;;4443039;32;20241;-86
2022/11/17 11:55:35;;;;;;;16.93;11.23;;;;;;;;;;4435730;32;20243;-83
2022/11/17 11:58:11;;;;;;;18.70;11.33;;;;;;;;;;4435268;32;20261;-82
2022/11/17 12:00:40;;;;;;;6.00;4.70;;;;;;;;;;4437580;32;20216;-81
2022/11/17 12:03:19;;;;;;;4.77;3.57;;;;;;;;;;4437731;32;20236;-81
2022/11/17 12:06:38;;;;;;;7.40;4.47;;;;;;;;;;4438589;32;20382;-81
2022/11/17 12:09:13;;;;;;;5.60;4.77;;;;;;;;;;4440331;32;20233;-81
2022/11/17 12:14:28;;;;;;;6.83;5.27;;;;;;;;;;4441468;32;21067;-83
2022/11/17 12:17:06;;;;;;;9.30;4.97;;;;;;;;;;4439606;32;20255;-83
2022/11/17 12:19:53;;;;;;;5.73;3.97;;;;;;;;;;4444663;32;20225;-82
2022/11/17 12:23:05;;;;;;;4.20;3.13;;;;;;;;;;4444199;32;20228;-84
2022/11/17 12:25:34;;;;;;;6.70;4.23;;;;;;;;;;4459814;32;20212;-83
2022/11/17 12:28:26;;;;;;;7.53;5.87;;;;;;;;;;4452849;32;20320;-86
2022/11/17 12:30:55;;;;;;;7.90;5.63;;;;;;;;;;4451207;32;20273;-83
2022/11/17 12:33:22;;;;;;;9.97;7.20;;;;;;;;;;4450618;32;20239;-84
2022/11/17 12:36:25;;;;;;;10.57;7.60;;;;;;;;;;4450649;32;20219;-84
2022/11/17 12:38:52;;;;;;;6.53;5.20;;;;;;;;;;4450535;32;20278;-82
2022/11/17 12:41:52;;;;;;;7.27;4.77;;;;;;;;;;4450808;32;20217;-85
2022/11/17 12:44:55;;;;;;;7.10;4.77;;;;;;;;;;4450401;32;20233;-84
2022/11/17 12:47:23;;;;;;;6.53;4.97;;;;;;;;;;4450397;32;20328;-82
2022/11/17 12:50:42;;;;;;;6.77;5.03;;;;;;;;;;4450531;32;20261;-83
2022/11/17 12:53:45;;;;;;;10.40;6.50;;;;;;;;;;4428354;32;20245;-81
2022/11/17 12:56:50;;;;;;;9.93;4.63;;;;;;;;;;4431316;32;20317;-84
2022/11/17 13:00:06;;;;;;;7.67;5.57;;;;;;;;;;4418765;32;20272;-83
2022/11/17 13:02:47;;;;;;;7.73;4.97;;;;;;;;;;4371479;32;20246;-83
2022/11/17 13:05:19;;;;;;;12.00;7.00;;;;;;;;;;4425874;32;20244;-82
2022/11/17 13:07:46;;;;;;;6.30;4.20;;;;;;;;;;4427463;32;20702;-82
2022/11/17 13:10:25;;;;;;;7.47;5.67;;;;;;;;;;4428230;32;20307;-80
2022/11/17 13:13:10;;;;;;;8.03;5.63;;;;;;;;;;4419918;32;20283;-82
2022/11/17 13:15:38;;;;;;;13.00;5.63;;;;;;;;;;4419132;32;20287;-77
2022/11/17 13:18:10;;;;;;;7.80;4.40;;;;;;;;;;4418587;32;20256;-82
2022/11/17 13:20:38;;;;;;;5.53;4.33;;;;;;;;;;4419414;32;20237;-77
2022/11/17 13:23:07;;;;;;;8.97;5.57;;;;;;;;;;4418995;32;20463;-84
2022/11/17 13:25:36;;;;;;;8.20;5.67;;;;;;;;;;4419238;32;20218;-81
2022/11/17 13:28:04;;;;;;;9.10;7.13;;;;;;;;;;4427056;32;20248;-77
2022/11/17 13:30:32;;;;;;;11.43;5.73;;;;;;;;;;4428651;32;20238;-81
2022/11/17 13:33:01;;;;;;;8.87;6.83;;;;;;;;;;4437834;32;20221;-77
2022/11/17 13:35:31;;;;;;;13.97;9.07;;;;;;;;;;4429001;32;20265;-78
2022/11/17 13:38:02;;;;;;;15.63;12.07;;;;;;;;;;4423502;32;20263;-84
2022/11/17 13:40:30;;;;;;;18.87;14.53;;;;;;;;;;4419055;32;20224;-82
2022/11/17 13:43:00;;;;;;;21.20;15.07;;;;;;;;;;4419343;32;20603;-82
2022/11/17 13:45:27;;;;;;;22.20;15.73;;;;;;;;;;4418497;32;20324;-77
2022/11/17 13:47:54;;;;;;;21.37;15.23;;;;;;;;;;4418594;32;20236;-77
2022/11/17 13:50:23;;;;;;;23.73;16.50;;;;;;;;;;4418454;32;20298;-82
2022/11/17 13:52:53;;;;;;;27.63;21.30;;;;;;;;;;4424943;32;20844;-76
2022/11/17 13:55:22;;;;;;;30.70;22.80;;;;;;;;;;4424165;32;20229;-84
2022/11/17 13:57:56;;;;;;;34.30;25.00;;;;;;;;;;4425528;32;20293;-84
2022/11/17 14:00:24;;;;;;;38.63;28.50;;;;;;;;;;4433853;32;20245;-86
2022/11/17 14:02:54;;;;;;;49.00;34.77;;;;;;;;;;4433817;32;20225;-83
2022/11/17 14:05:24;;;;;;;44.87;31.73;;;;;;;;;;4433275;32;20297;-80
2022/11/17 14:07:52;;;;;;;39.23;28.20;;;;;;;;;;4433461;32;20293;-81
2022/11/17 14:10:34;;;;;;;33.10;26.20;;;;;;;;;;4433465;32;20316;-81
2022/11/17 14:13:20;;;;;;;29.67;23.37;;;;;;;;;;4433885;32;20261;-85
2022/11/17 14:15:55;;;;;;;31.60;21.90;;;;;;;;;;4433340;32;20692;-81
2022/11/17 14:18:35;;;;;;;22.70;18.97;;;;;;;;;;4433075;32;20212;-79
2022/11/17 14:21:11;;;;;;;22.17;17.40;;;;;;;;;;4433748;32;20289;-80
2022/11/17 14:23:38;;;;;;;26.97;20.50;;;;;;;;;;4433263;32;20240;-81
2022/11/17 14:26:06;;;;;;;26.40;21.40;;;;;;;;;;4432466;32;20232;-78
2022/11/17 14:28:32;;;;;;;27.63;21.67;;;;;;;;;;4437660;32;20933;-84
2022/11/17 14:31:01;;;;;;;30.07;22.27;;;;;;;;;;4448750;32;20313;-78
2022/11/17 14:33:27;;;;;;;36.90;28.03;;;;;;;;;;4448534;32;20301;-80
2022/11/17 14:35:57;;;;;;;40.40;31.97;;;;;;;;;;4448675;32;20233;-81
2022/11/17 14:38:24;;;;;;;45.77;36.30;;;;;;;;;;4448563;32;20382;-82
2022/11/17 14:40:52;;;;;;;52.00;36.90;;;;;;;;;;4448924;32;20242;-80
2022/11/17 14:43:20;;;;;;;57.17;40.00;;;;;;;;;;4448541;32;20227;-80
2022/11/17 14:45:47;;;;;;;48.27;36.70;;;;;;;;;;4448408;32;20304;-86
2022/11/17 14:48:16;;;;;;;50.53;39.07;;;;;;;;;;4448013;32;20638;-80
2022/11/17 14:50:43;;;;;;;52.33;39.30;;;;;;;;;;4448237;32;20266;-84
2022/11/17 14:53:10;;;;;;;49.37;39.07;;;;;;;;;;4439513;32;20237;-80
2022/11/17 14:55:36;;;;;;;51.43;39.47;;;;;;;;;;4432896;32;20722;-82
2022/11/17 14:58:03;;;;;;;52.67;40.63;;;;;;;;;;4432887;32;20644;-81
2022/11/17 15:00:30;;;;;;;53.60;39.97;;;;;;;;;;4425817;32;20283;-81
2022/11/17 15:02:57;;;;;;;57.93;42.67;;;;;;;;;;4432441;32;20666;-82
2022/11/17 15:05:26;;;;;;;73.83;55.30;;;;;;;;;;4433121;32;20236;-81
2022/11/17 15:07:53;;;;;;;96.10;71.23;;;;;;;;;;4432577;32;20294;-86
2022/11/17 15:10:20;;;;;;;98.77;69.97;;;;;;;;;;4432781;32;20273;-81
2022/11/17 15:12:46;;;;;;;94.73;69.67;;;;;;;;;;4432542;32;20330;-83
2022/11/17 15:15:13;;;;;;;92.97;65.57;;;;;;;;;;4433275;32;20294;-82
2022/11/17 15:17:40;;;;;;;87.93;63.20;;;;;;;;;;4432696;32;20233;-80
2022/11/17 15:20:08;;;;;;;92.63;64.87;;;;;;;;;;4433276;32;20245;-83
2022/11/17 15:22:37;;;;;;;81.07;57.77;;;;;;;;;;4432964;32;21080;-82
2022/11/17 15:25:04;;;;;;;58.50;43.07;;;;;;;;;;4432993;32;20266;-84
2022/11/17 15:27:31;;;;;;;70.73;58.67;;;;;;;;;;4430460;32;20298;-84
2022/11/17 15:29:58;;;;;;;77.57;59.63;;;;;;;;;;4443921;32;20235;-80
2022/11/17 15:32:25;;;;;;;96.53;68.87;;;;;;;;;;4447694;32;20252;-82
2022/11/17 15:34:52;;;;;;;173.37;116.27;;;;;;;;;;4447985;32;20695;-85